Time;durP1;ratioP1;P1;durP2;ratioP2;P2;SDS_P1;SDS_P2;PMS_P1;PMS_P2;Temp;Humidity;BMP_temperature;BMP_pressure;BME280_temperature;BME280_humidity;BME280_pressure;Samples;Min_cycle;Max_cycle;Signal;HPM_P1;HPM_P2
2021/12/07 00:02:18;;;;;;;11.80;9.33;;;;;;;;;;5036401;28;20451;-72
2021/12/07 00:04:44;;;;;;;8.97;7.37;;;;;;;;;;5037115;28;20631;-72
2021/12/07 00:07:11;;;;;;;10.27;8.10;;;;;;;;;;5038640;28;20226;-71
2021/12/07 00:09:38;;;;;;;8.57;7.03;;;;;;;;;;5036715;28;20235;-70
2021/12/07 00:12:06;;;;;;;9.90;8.77;;;;;;;;;;5035747;28;20802;-70
2021/12/07 00:14:39;;;;;;;9.10;6.70;;;;;;;;;;5038651;28;20560;-70
2021/12/07 00:17:05;;;;;;;11.17;9.27;;;;;;;;;;5037341;28;20292;-71
2021/12/07 00:19:33;;;;;;;8.90;7.93;;;;;;;;;;5036608;28;20351;-71
2021/12/07 00:22:00;;;;;;;11.10;9.47;;;;;;;;;;5037768;28;20830;-70
2021/12/07 00:24:26;;;;;;;9.27;8.20;;;;;;;;;;5037765;28;20759;-70
2021/12/07 00:26:53;;;;;;;10.23;8.57;;;;;;;;;;5035797;28;20222;-71
2021/12/07 00:29:19;;;;;;;9.70;8.07;;;;;;;;;;5036737;28;20238;-71
2021/12/07 00:31:54;;;;;;;9.67;8.43;;;;;;;;;;5037861;28;20302;-71
2021/12/07 00:34:41;;;;;;;9.30;7.90;;;;;;;;;;5036362;28;20214;-72
2021/12/07 00:37:08;;;;;;;6.57;5.63;;;;;;;;;;5036801;28;20301;-72
2021/12/07 00:39:35;;;;;;;8.70;6.90;;;;;;;;;;5036924;28;20246;-73
2021/12/07 00:42:02;;;;;;;9.30;8.30;;;;;;;;;;5036561;28;20257;-74
2021/12/07 00:44:28;;;;;;;11.83;9.47;;;;;;;;;;5036348;28;20214;-73
2021/12/07 00:46:57;;;;;;;9.50;8.13;;;;;;;;;;5036232;28;20226;-73
2021/12/07 00:49:24;;;;;;;9.47;8.13;;;;;;;;;;5037848;28;20280;-76
2021/12/07 00:51:51;;;;;;;9.20;8.23;;;;;;;;;;5035906;28;20230;-76
2021/12/07 00:54:18;;;;;;;10.23;8.83;;;;;;;;;;5035535;28;20680;-76
2021/12/07 00:56:45;;;;;;;9.27;8.03;;;;;;;;;;5038156;28;20665;-76
2021/12/07 00:59:11;;;;;;;10.03;7.37;;;;;;;;;;5036233;28;20213;-76
2021/12/07 01:01:38;;;;;;;10.87;9.50;;;;;;;;;;5035783;28;20226;-76
2021/12/07 01:04:07;;;;;;;9.50;8.50;;;;;;;;;;5037369;28;20623;-76
2021/12/07 01:06:45;;;;;;;9.77;8.27;;;;;;;;;;5037480;28;20245;-76
2021/12/07 01:09:19;;;;;;;9.57;7.70;;;;;;;;;;5035818;28;20677;-76
2021/12/07 01:25:39;;;;;;;10.07;8.17;;;;;;;;;;5041143;28;20675;-74
2021/12/07 01:28:13;;;;;;;11.03;8.43;;;;;;;;;;5041077;28;20206;-74
2021/12/07 01:30:47;;;;;;;11.10;8.13;;;;;;;;;;5039857;28;20242;-72
2021/12/07 01:33:32;;;;;;;13.37;8.10;;;;;;;;;;5040464;28;20209;-72
2021/12/07 01:36:13;;;;;;;11.30;9.30;;;;;;;;;;5041897;28;20206;-71
2021/12/07 01:41:42;;;;;;;11.40;8.73;;;;;;;;;;5039857;28;20238;-72
2021/12/07 01:44:24;;;;;;;9.73;8.20;;;;;;;;;;5039673;28;20210;-73
2021/12/07 01:47:10;;;;;;;12.30;9.53;;;;;;;;;;5040919;28;20248;-73
2021/12/07 01:50:14;;;;;;;12.33;9.20;;;;;;;;;;5040038;28;20252;-73
2021/12/07 01:52:53;;;;;;;12.50;9.73;;;;;;;;;;5039396;28;20271;-73
2021/12/07 02:00:50;;;;;;;12.67;9.03;;;;;;;;;;5009610;28;20305;-71
2021/12/07 02:03:17;;;;;;;12.50;9.60;;;;;;;;;;5039950;28;20210;-73
2021/12/07 02:05:44;;;;;;;11.97;9.93;;;;;;;;;;5040044;28;20214;-71
2021/12/07 02:08:12;;;;;;;14.33;11.37;;;;;;;;;;5040708;28;20265;-71
2021/12/07 02:10:39;;;;;;;15.10;10.73;;;;;;;;;;5039256;28;20242;-71
2021/12/07 02:13:19;;;;;;;14.20;10.80;;;;;;;;;;5040016;28;20541;-71
2021/12/07 02:15:46;;;;;;;16.27;10.53;;;;;;;;;;5040810;28;20221;-69
2021/12/07 02:18:13;;;;;;;15.57;11.23;;;;;;;;;;5040154;28;20233;-73
2021/12/07 02:20:40;;;;;;;15.77;11.37;;;;;;;;;;5038182;28;20217;-71
2021/12/07 02:23:08;;;;;;;13.73;10.93;;;;;;;;;;5039229;28;20258;-71
2021/12/07 02:25:35;;;;;;;17.63;11.80;;;;;;;;;;5039467;28;20222;-71
2021/12/07 02:28:01;;;;;;;15.37;11.63;;;;;;;;;;5039128;28;20670;-71
2021/12/07 02:30:28;;;;;;;14.63;10.87;;;;;;;;;;5039661;28;20214;-71
2021/12/07 02:32:56;;;;;;;16.27;11.97;;;;;;;;;;5039840;28;20276;-71
2021/12/07 02:35:26;;;;;;;15.83;11.00;;;;;;;;;;5038379;28;20754;-71
2021/12/07 02:37:54;;;;;;;22.00;13.10;;;;;;;;;;5039019;28;20246;-71
2021/12/07 02:40:22;;;;;;;14.20;10.70;;;;;;;;;;5039831;28;20253;-71
2021/12/07 02:42:49;;;;;;;14.07;9.93;;;;;;;;;;5037387;28;20284;-71
2021/12/07 02:45:15;;;;;;;12.60;8.80;;;;;;;;;;5039123;28;20211;-71
2021/12/07 02:47:42;;;;;;;11.57;7.20;;;;;;;;;;5039849;28;20227;-70
2021/12/07 02:50:10;;;;;;;13.10;8.40;;;;;;;;;;5038185;28;20219;-70
2021/12/07 02:52:37;;;;;;;9.57;6.70;;;;;;;;;;5037627;28;20237;-70
2021/12/07 02:55:04;;;;;;;9.80;6.57;;;;;;;;;;5040272;28;20719;-70
2021/12/07 02:57:34;;;;;;;6.97;5.50;;;;;;;;;;5038282;28;20218;-70
2021/12/07 03:00:07;;;;;;;8.57;4.97;;;;;;;;;;5038008;28;20263;-70
2021/12/07 03:02:40;;;;;;;8.03;5.30;;;;;;;;;;5038956;28;20236;-70
2021/12/07 03:05:16;;;;;;;9.27;5.47;;;;;;;;;;5039302;28;20203;-70
2021/12/07 03:07:53;;;;;;;9.60;5.43;;;;;;;;;;5037861;28;20210;-70
2021/12/07 03:26:45;;;;;;;14.83;10.20;;;;;;;;;;5037945;28;20264;-70
2021/12/07 03:29:13;;;;;;;20.73;10.30;;;;;;;;;;5037403;28;20241;-70
2021/12/07 03:31:39;;;;;;;13.90;11.17;;;;;;;;;;5037484;28;20684;-70
2021/12/07 03:34:06;;;;;;;17.13;11.60;;;;;;;;;;5038657;28;20206;-70
2021/12/07 03:36:32;;;;;;;19.43;13.10;;;;;;;;;;5036617;28;20214;-70
2021/12/07 03:39:00;;;;;;;19.50;11.83;;;;;;;;;;5037618;28;20245;-70
2021/12/07 03:41:27;;;;;;;17.20;11.13;;;;;;;;;;5037994;28;20222;-70
2021/12/07 03:43:54;;;;;;;19.00;11.07;;;;;;;;;;5036729;28;20218;-70
2021/12/07 03:46:22;;;;;;;19.50;13.07;;;;;;;;;;5036146;28;20244;-70
2021/12/07 03:48:48;;;;;;;18.77;13.90;;;;;;;;;;5039474;28;20998;-69
2021/12/07 03:51:16;;;;;;;21.77;14.40;;;;;;;;;;5037004;28;21194;-69
2021/12/07 03:53:42;;;;;;;18.57;12.70;;;;;;;;;;5036392;28;20258;-70
2021/12/07 03:56:09;;;;;;;23.63;13.73;;;;;;;;;;5038420;28;20276;-70
2021/12/07 03:58:37;;;;;;;19.90;12.50;;;;;;;;;;5037171;28;20260;-70
2021/12/07 04:01:06;;;;;;;19.47;12.13;;;;;;;;;;5036141;28;20656;-70
2021/12/07 04:03:36;;;;;;;18.97;11.80;;;;;;;;;;5037990;28;20206;-70
2021/12/07 04:06:06;;;;;;;17.97;12.43;;;;;;;;;;5037690;28;20622;-70
2021/12/07 04:08:35;;;;;;;19.83;12.17;;;;;;;;;;5036263;28;20213;-70
2021/12/07 04:11:02;;;;;;;20.77;11.83;;;;;;;;;;5036381;28;20308;-70
2021/12/07 04:13:29;;;;;;;18.70;12.27;;;;;;;;;;5038651;28;20763;-70
2021/12/07 04:15:57;;;;;;;17.20;10.40;;;;;;;;;;5035967;28;20237;-69
2021/12/07 04:18:23;;;;;;;12.77;9.43;;;;;;;;;;5036550;28;20245;-70
2021/12/07 04:20:51;;;;;;;14.43;8.50;;;;;;;;;;5038237;28;20612;-69
2021/12/07 04:23:18;;;;;;;11.73;6.23;;;;;;;;;;5036504;28;21028;-69
2021/12/07 04:25:44;;;;;;;7.93;5.70;;;;;;;;;;5035434;28;20276;-69
2021/12/07 04:28:11;;;;;;;10.63;5.47;;;;;;;;;;5037828;28;20622;-69
2021/12/07 04:30:40;;;;;;;12.00;5.07;;;;;;;;;;5036715;28;20225;-69
2021/12/07 04:33:09;;;;;;;9.17;5.30;;;;;;;;;;5035494;28;20268;-69
2021/12/07 04:35:37;;;;;;;9.70;4.27;;;;;;;;;;5037788;28;20298;-72
2021/12/07 04:38:05;;;;;;;5.60;3.50;;;;;;;;;;5036953;28;20241;-71
2021/12/07 04:40:32;;;;;;;10.77;3.57;;;;;;;;;;5035323;28;20238;-72
2021/12/07 04:43:00;;;;;;;7.47;3.03;;;;;;;;;;5036900;28;20210;-72
2021/12/07 04:45:35;;;;;;;7.43;2.87;;;;;;;;;;5037102;28;20237;-72
2021/12/07 04:48:08;;;;;;;4.90;1.53;;;;;;;;;;5034663;28;20882;-72
2021/12/07 04:57:36;;;;;;;6.30;2.83;;;;;;;;;;5036444;28;20222;-72
2021/12/07 04:58:59;;;;;;;8.60;4.40;;;;;;;;;;5035424;28;20257;-72
2021/12/07 05:01:26;;;;;;;7.60;4.60;;;;;;;;;;5036371;28;20225;-72
2021/12/07 05:03:55;;;;;;;5.90;3.60;;;;;;;;;;5037584;28;20207;-72
2021/12/07 05:06:25;;;;;;;9.40;4.60;;;;;;;;;;5035296;28;20300;-72
2021/12/07 05:08:58;;;;;;;6.70;3.87;;;;;;;;;;5035132;28;20234;-72
2021/12/07 05:11:44;;;;;;;7.47;3.80;;;;;;;;;;5036215;28;20282;-72
2021/12/07 05:14:17;;;;;;;6.80;3.43;;;;;;;;;;5037354;28;20266;-72
2021/12/07 05:16:56;;;;;;;9.17;4.00;;;;;;;;;;5034729;28;20228;-72
2021/12/07 05:25:21;;;;;;;9.57;4.57;;;;;;;;;;5036950;28;20253;-69
2021/12/07 05:38:43;;;;;;;8.77;2.80;;;;;;;;;;5035694;28;20249;-69
2021/12/07 05:41:11;;;;;;;9.20;2.60;;;;;;;;;;5035149;28;20304;-72
2021/12/07 05:43:38;;;;;;;7.33;2.70;;;;;;;;;;5037657;28;20207;-72
2021/12/07 05:46:04;;;;;;;6.73;2.47;;;;;;;;;;5035686;28;20227;-72
2021/12/07 05:48:31;;;;;;;9.60;2.13;;;;;;;;;;5035577;28;20478;-72
2021/12/07 05:50:57;;;;;;;7.07;2.80;;;;;;;;;;5036044;28;20211;-72
2021/12/07 05:53:24;;;;;;;8.27;2.80;;;;;;;;;;5036640;28;20331;-72
2021/12/07 05:55:50;;;;;;;10.77;3.10;;;;;;;;;;5034553;28;20284;-72
2021/12/07 05:58:19;;;;;;;10.13;3.17;;;;;;;;;;5035403;28;20623;-72
2021/12/07 06:00:46;;;;;;;9.57;3.10;;;;;;;;;;5038838;28;20219;-71
2021/12/07 06:03:13;;;;;;;7.63;3.50;;;;;;;;;;5038825;28;20207;-72
2021/12/07 06:05:42;;;;;;;7.63;3.23;;;;;;;;;;5039189;28;20218;-72
2021/12/07 06:08:09;;;;;;;9.47;3.30;;;;;;;;;;5040349;28;20214;-73
2021/12/07 06:10:36;;;;;;;7.23;3.50;;;;;;;;;;5038244;28;20282;-70
2021/12/07 06:13:04;;;;;;;11.73;3.70;;;;;;;;;;5038977;28;20225;-73
2021/12/07 06:15:34;;;;;;;12.37;3.63;;;;;;;;;;5040897;28;20213;-73
2021/12/07 06:18:00;;;;;;;13.30;3.73;;;;;;;;;;5039739;28;20214;-70
2021/12/07 06:20:27;;;;;;;9.60;3.73;;;;;;;;;;5038116;28;20215;-72
2021/12/07 06:22:53;;;;;;;11.70;3.37;;;;;;;;;;5040109;28;20266;-72
2021/12/07 06:25:20;;;;;;;6.80;4.30;;;;;;;;;;5038954;28;20680;-72
2021/12/07 06:27:46;;;;;;;9.70;3.83;;;;;;;;;;5038932;28;21168;-71
2021/12/07 06:30:14;;;;;;;8.93;4.10;;;;;;;;;;5039476;28;20713;-71
2021/12/07 06:32:42;;;;;;;10.00;3.70;;;;;;;;;;5039341;28;20691;-70
2021/12/07 06:35:10;;;;;;;10.50;3.60;;;;;;;;;;5037427;28;20286;-70
2021/12/07 06:37:37;;;;;;;11.87;3.97;;;;;;;;;;5039544;28;20877;-70
2021/12/07 06:40:04;;;;;;;11.30;3.80;;;;;;;;;;5039433;28;20218;-70
2021/12/07 06:42:31;;;;;;;12.93;4.10;;;;;;;;;;5037465;28;20766;-70
2021/12/07 06:44:57;;;;;;;10.00;3.90;;;;;;;;;;5038773;28;20218;-71
2021/12/07 06:47:24;;;;;;;8.93;3.73;;;;;;;;;;5039527;28;20222;-70
2021/12/07 06:49:52;;;;;;;16.40;3.80;;;;;;;;;;5037275;28;20222;-71
2021/12/07 06:52:18;;;;;;;10.83;4.17;;;;;;;;;;5038833;28;20237;-70
2021/12/07 06:54:44;;;;;;;9.33;4.10;;;;;;;;;;5038660;28;20221;-71
2021/12/07 06:57:11;;;;;;;7.63;3.23;;;;;;;;;;5038053;28;20690;-70
2021/12/07 06:59:37;;;;;;;10.00;3.87;;;;;;;;;;5037431;28;20210;-71
2021/12/07 07:02:04;;;;;;;9.00;3.13;;;;;;;;;;5037401;28;20288;-71
2021/12/07 07:04:30;;;;;;;10.60;3.07;;;;;;;;;;5036606;28;20210;-70
2021/12/07 07:07:01;;;;;;;11.17;3.20;;;;;;;;;;5037653;28;20743;-71
2021/12/07 07:09:28;;;;;;;7.80;2.83;;;;;;;;;;5036258;28;20223;-73
2021/12/07 07:11:54;;;;;;;6.67;2.77;;;;;;;;;;5034199;28;20659;-70
2021/12/07 07:14:21;;;;;;;9.60;2.97;;;;;;;;;;5037082;28;20213;-70
2021/12/07 07:16:47;;;;;;;9.13;2.60;;;;;;;;;;5034799;28;20234;-70
2021/12/07 07:19:14;;;;;;;8.73;3.40;;;;;;;;;;5035615;28;20210;-70
2021/12/07 07:21:40;;;;;;;7.97;2.30;;;;;;;;;;5035607;28;20256;-70
2021/12/07 07:24:09;;;;;;;7.70;2.30;;;;;;;;;;5034013;28;20207;-70
2021/12/07 07:26:36;;;;;;;7.00;2.23;;;;;;;;;;5037512;28;20225;-70
2021/12/07 07:29:02;;;;;;;9.63;2.77;;;;;;;;;;5034502;28;20692;-71
2021/12/07 07:31:29;;;;;;;8.20;2.30;;;;;;;;;;5034366;28;20283;-71
2021/12/07 07:33:55;;;;;;;6.43;2.40;;;;;;;;;;5034164;28;20538;-71
2021/12/07 07:36:22;;;;;;;5.50;2.00;;;;;;;;;;5033298;28;20211;-72
2021/12/07 07:38:49;;;;;;;9.20;2.50;;;;;;;;;;5036579;28;20246;-71
2021/12/07 07:41:16;;;;;;;7.13;2.40;;;;;;;;;;5032071;28;20995;-73
2021/12/07 07:43:43;;;;;;;7.00;2.80;;;;;;;;;;5036572;28;20845;-73
2021/12/07 07:46:09;;;;;;;6.70;2.23;;;;;;;;;;5033716;28;20253;-71
2021/12/07 07:48:36;;;;;;;8.60;2.40;;;;;;;;;;5034389;28;20295;-71
2021/12/07 07:51:02;;;;;;;7.10;2.23;;;;;;;;;;5035543;28;20884;-71
2021/12/07 07:53:28;;;;;;;10.27;2.83;;;;;;;;;;5033375;28;20226;-71
2021/12/07 07:55:55;;;;;;;8.57;2.53;;;;;;;;;;5036758;28;20325;-70
2021/12/07 07:58:23;;;;;;;11.03;3.50;;;;;;;;;;5034336;28;20500;-71
2021/12/07 08:00:50;;;;;;;8.10;2.97;;;;;;;;;;5036214;28;21243;-71
2021/12/07 08:03:17;;;;;;;5.80;2.23;;;;;;;;;;5035410;28;20217;-70
2021/12/07 08:05:44;;;;;;;9.37;2.47;;;;;;;;;;5034558;28;20221;-71
2021/12/07 08:08:10;;;;;;;8.07;2.90;;;;;;;;;;5035520;28;20275;-73
2021/12/07 08:10:37;;;;;;;9.27;3.30;;;;;;;;;;5033426;28;20228;-73
2021/12/07 08:13:05;;;;;;;12.00;3.13;;;;;;;;;;5035796;28;20293;-74
2021/12/07 08:15:36;;;;;;;12.33;2.70;;;;;;;;;;5034033;28;20710;-73
2021/12/07 08:18:03;;;;;;;7.87;2.87;;;;;;;;;;5033449;28;20575;-74
2021/12/07 08:20:30;;;;;;;8.47;3.27;;;;;;;;;;5035588;28;20209;-73
2021/12/07 08:22:58;;;;;;;9.50;2.97;;;;;;;;;;5033085;28;20218;-74
2021/12/07 08:25:24;;;;;;;5.90;3.10;;;;;;;;;;5034588;28;20226;-74
2021/12/07 08:27:51;;;;;;;6.20;2.90;;;;;;;;;;5034681;28;20272;-74
2021/12/07 08:30:18;;;;;;;10.13;3.43;;;;;;;;;;5034313;28;20315;-74
2021/12/07 08:32:46;;;;;;;6.83;3.50;;;;;;;;;;5035851;28;20245;-74
2021/12/07 08:35:14;;;;;;;9.30;3.47;;;;;;;;;;5033217;28;20214;-74
2021/12/07 08:37:43;;;;;;;9.50;3.70;;;;;;;;;;5035690;28;20611;-74
2021/12/07 08:40:11;;;;;;;8.70;3.20;;;;;;;;;;5032874;28;21033;-74
2021/12/07 08:42:39;;;;;;;7.10;3.23;;;;;;;;;;5034387;28;20226;-74
2021/12/07 08:45:07;;;;;;;11.00;3.20;;;;;;;;;;5034517;28;20854;-74
2021/12/07 08:47:33;;;;;;;8.70;2.90;;;;;;;;;;5033639;28;20536;-74
2021/12/07 08:50:01;;;;;;;7.73;2.90;;;;;;;;;;5036145;28;20589;-74
2021/12/07 08:52:28;;;;;;;7.30;3.03;;;;;;;;;;5032841;28;20721;-74
2021/12/07 09:00:23;;;;;;;9.67;3.60;;;;;;;;;;5031587;28;20217;-73
2021/12/07 09:02:49;;;;;;;9.43;3.50;;;;;;;;;;5034543;28;20212;-73
2021/12/07 09:05:17;;;;;;;9.70;3.90;;;;;;;;;;5034725;28;20882;-73
2021/12/07 09:07:44;;;;;;;7.83;3.97;;;;;;;;;;5034548;28;20330;-72
2021/12/07 09:10:11;;;;;;;12.03;4.20;;;;;;;;;;5034282;28;20721;-72
2021/12/07 09:12:39;;;;;;;10.10;3.90;;;;;;;;;;5032794;28;20283;-73
2021/12/07 09:15:07;;;;;;;9.20;4.67;;;;;;;;;;5035158;28;20206;-70
2021/12/07 09:17:35;;;;;;;15.73;4.90;;;;;;;;;;5033913;28;20256;-72
2021/12/07 09:20:02;;;;;;;11.00;4.37;;;;;;;;;;5033787;28;20211;-72
2021/12/07 09:22:30;;;;;;;12.87;4.10;;;;;;;;;;5033547;28;20214;-72
2021/12/07 09:24:56;;;;;;;12.00;4.20;;;;;;;;;;5032470;28;20227;-72
2021/12/07 09:27:23;;;;;;;12.97;5.00;;;;;;;;;;5035289;28;20271;-70
2021/12/07 09:29:49;;;;;;;9.40;4.70;;;;;;;;;;5033594;28;20280;-72
2021/12/07 09:32:16;;;;;;;11.77;4.10;;;;;;;;;;5034079;28;20230;-70
2021/12/07 09:34:43;;;;;;;13.43;5.13;;;;;;;;;;5037775;28;20256;-70
2021/12/07 09:37:10;;;;;;;10.90;3.60;;;;;;;;;;5036615;28;20214;-70
2021/12/07 09:39:37;;;;;;;9.03;4.20;;;;;;;;;;5038393;28;20866;-72
2021/12/07 09:42:04;;;;;;;10.03;4.27;;;;;;;;;;5037188;28;20270;-73
2021/12/07 09:44:31;;;;;;;13.30;4.23;;;;;;;;;;5038440;28;20446;-71
2021/12/07 09:46:58;;;;;;;8.53;4.50;;;;;;;;;;5037660;28;20225;-71
2021/12/07 09:49:24;;;;;;;11.77;5.30;;;;;;;;;;5036111;28;20238;-71
2021/12/07 09:51:51;;;;;;;8.63;4.57;;;;;;;;;;5038920;28;20860;-71
2021/12/07 09:54:17;;;;;;;11.10;4.93;;;;;;;;;;5035039;28;20223;-70
2021/12/07 09:56:45;;;;;;;13.40;5.00;;;;;;;;;;5037919;28;20215;-71
2021/12/07 09:59:12;;;;;;;9.30;4.60;;;;;;;;;;5036953;28;20218;-71
2021/12/07 10:01:41;;;;;;;9.53;4.50;;;;;;;;;;5037542;28;20273;-71
2021/12/07 10:04:08;;;;;;;12.70;4.93;;;;;;;;;;5037722;28;20207;-70
2021/12/07 10:06:34;;;;;;;8.17;4.10;;;;;;;;;;5036665;28;20218;-71
2021/12/07 10:09:02;;;;;;;7.53;4.30;;;;;;;;;;5038248;28;20522;-70
2021/12/07 10:11:32;;;;;;;6.73;3.40;;;;;;;;;;5036210;28;20276;-71
2021/12/07 10:14:00;;;;;;;7.13;3.50;;;;;;;;;;5037657;28;20218;-71
2021/12/07 10:16:28;;;;;;;9.97;4.23;;;;;;;;;;5038069;28;20839;-70
2021/12/07 10:18:55;;;;;;;8.70;4.27;;;;;;;;;;5035403;28;20300;-71
2021/12/07 10:21:26;;;;;;;7.73;4.00;;;;;;;;;;5037846;28;20207;-70
2021/12/07 10:23:58;;;;;;;8.70;4.23;;;;;;;;;;5035793;28;20211;-70
2021/12/07 10:26:27;;;;;;;7.10;3.77;;;;;;;;;;5036452;28;20234;-70
2021/12/07 10:28:56;;;;;;;7.03;3.63;;;;;;;;;;5037128;28;20892;-71
2021/12/07 10:31:28;;;;;;;11.97;4.30;;;;;;;;;;5034727;28;20226;-70
2021/12/07 10:33:58;;;;;;;11.27;4.30;;;;;;;;;;5037265;28;20285;-70
2021/12/07 10:36:28;;;;;;;13.83;4.33;;;;;;;;;;5036220;28;20213;-70
2021/12/07 10:38:58;;;;;;;9.37;3.67;;;;;;;;;;5036181;28;20761;-70
2021/12/07 10:41:26;;;;;;;8.90;4.83;;;;;;;;;;5037323;28;20249;-70
2021/12/07 10:43:56;;;;;;;9.47;4.70;;;;;;;;;;5035056;28;20199;-70
2021/12/07 10:46:33;;;;;;;11.60;4.80;;;;;;;;;;5036873;28;20497;-70
2021/12/07 10:49:13;;;;;;;10.03;3.80;;;;;;;;;;5037017;28;20230;-71
2021/12/07 10:51:40;;;;;;;11.83;4.00;;;;;;;;;;5035857;28;20292;-70
2021/12/07 10:54:07;;;;;;;7.57;3.87;;;;;;;;;;5036848;28;20264;-71
2021/12/07 10:56:35;;;;;;;11.17;4.27;;;;;;;;;;5037429;28;20616;-70
2021/12/07 10:59:04;;;;;;;7.90;4.30;;;;;;;;;;5040064;28;20215;-70
2021/12/07 11:01:34;;;;;;;11.87;4.80;;;;;;;;;;5026670;28;20223;-72
2021/12/07 11:04:24;;;;;;;9.80;4.23;;;;;;;;;;5040814;28;20772;-73
2021/12/07 11:07:14;;;;;;;12.30;4.53;;;;;;;;;;5039576;28;20211;-72
2021/12/07 11:09:45;;;;;;;10.10;4.40;;;;;;;;;;5037103;28;20239;-73
2021/12/07 11:12:13;;;;;;;11.87;4.13;;;;;;;;;;5039803;28;20481;-73
2021/12/07 11:14:41;;;;;;;13.23;4.97;;;;;;;;;;5037545;28;20238;-73
2021/12/07 11:17:09;;;;;;;11.77;3.90;;;;;;;;;;5038808;28;20854;-74
2021/12/07 11:19:36;;;;;;;12.23;4.13;;;;;;;;;;5038306;28;20210;-73
2021/12/07 11:22:03;;;;;;;13.57;4.40;;;;;;;;;;5038677;28;20591;-73
2021/12/07 11:24:36;;;;;;;8.80;3.90;;;;;;;;;;5037261;28;20199;-74
2021/12/07 11:30:04;;;;;;;6.67;3.90;;;;;;;;;;5039135;28;20252;-73
2021/12/07 11:32:32;;;;;;;9.03;3.87;;;;;;;;;;5037280;28;20686;-74
2021/12/07 11:35:13;;;;;;;8.23;3.37;;;;;;;;;;5039846;28;20265;-74
2021/12/07 11:37:40;;;;;;;11.60;4.07;;;;;;;;;;5037067;28;20206;-74
2021/12/07 11:40:09;;;;;;;11.37;4.00;;;;;;;;;;5038796;28;20665;-75
2021/12/07 11:42:38;;;;;;;8.77;3.60;;;;;;;;;;5038966;28;20685;-74
2021/12/07 11:45:10;;;;;;;12.77;4.27;;;;;;;;;;5037528;28;20256;-75
2021/12/07 11:47:43;;;;;;;11.90;4.67;;;;;;;;;;5040319;28;20226;-76
2021/12/07 11:50:18;;;;;;;12.77;4.83;;;;;;;;;;5037179;28;20317;-75
2021/12/07 11:52:45;;;;;;;12.10;4.10;;;;;;;;;;5040217;28;20817;-75
2021/12/07 11:55:12;;;;;;;8.20;3.90;;;;;;;;;;5035352;28;20248;-75
2021/12/07 11:57:39;;;;;;;10.97;4.43;;;;;;;;;;5038966;28;20597;-75
2021/12/07 12:00:12;;;;;;;9.80;4.23;;;;;;;;;;5036478;28;20688;-73
2021/12/07 12:02:40;;;;;;;8.83;4.33;;;;;;;;;;5039077;28;20237;-73
2021/12/07 12:05:08;;;;;;;10.23;4.23;;;;;;;;;;5037828;28;20568;-73
2021/12/07 12:07:36;;;;;;;9.93;4.37;;;;;;;;;;5038104;28;20215;-73
2021/12/07 12:10:03;;;;;;;8.50;3.90;;;;;;;;;;5037412;28;20576;-74
2021/12/07 12:12:35;;;;;;;13.37;5.03;;;;;;;;;;5036783;28;20225;-74
2021/12/07 12:15:24;;;;;;;9.27;3.77;;;;;;;;;;5038804;28;20218;-74
2021/12/07 12:18:01;;;;;;;10.40;4.33;;;;;;;;;;5036084;28;20750;-74
2021/12/07 12:20:39;;;;;;;14.30;4.63;;;;;;;;;;5038597;28;20708;-74
2021/12/07 12:23:17;;;;;;;12.50;4.93;;;;;;;;;;5037740;28;20213;-75
2021/12/07 12:25:44;;;;;;;14.17;4.70;;;;;;;;;;5037702;28;20670;-75
2021/12/07 12:28:10;;;;;;;13.33;5.87;;;;;;;;;;5037058;28;20312;-76
2021/12/07 12:30:41;;;;;;;10.13;5.43;;;;;;;;;;5037590;28;20207;-76
2021/12/07 12:33:10;;;;;;;15.33;5.77;;;;;;;;;;5038141;28;20213;-76
2021/12/07 12:35:41;;;;;;;13.63;5.50;;;;;;;;;;5036541;28;20313;-77
2021/12/07 12:38:18;;;;;;;8.07;4.93;;;;;;;;;;5037304;28;20237;-77
2021/12/07 12:40:55;;;;;;;15.07;5.27;;;;;;;;;;5035033;28;20624;-76
2021/12/07 12:43:33;;;;;;;17.87;6.10;;;;;;;;;;5038600;28;20300;-77
2021/12/07 12:46:02;;;;;;;10.83;5.37;;;;;;;;;;5037033;28;20292;-78
2021/12/07 12:48:32;;;;;;;14.47;5.17;;;;;;;;;;5037248;28;20883;-77
2021/12/07 12:50:59;;;;;;;13.13;6.17;;;;;;;;;;5038131;28;20939;-77
2021/12/07 12:53:30;;;;;;;16.17;5.07;;;;;;;;;;5036472;28;20214;-76
2021/12/07 12:56:02;;;;;;;13.13;5.50;;;;;;;;;;5036691;28;20234;-77
2021/12/07 12:58:39;;;;;;;13.03;6.00;;;;;;;;;;5035610;28;20214;-76
2021/12/07 13:01:35;;;;;;;11.80;5.70;;;;;;;;;;5037973;28;20680;-76
2021/12/07 13:04:13;;;;;;;9.40;5.70;;;;;;;;;;5010067;28;20447;-76
2021/12/07 13:06:54;;;;;;;13.73;7.20;;;;;;;;;;5037004;28;20221;-77
2021/12/07 13:09:42;;;;;;;14.70;7.27;;;;;;;;;;5040067;28;20209;-76
2021/12/07 13:12:12;;;;;;;11.93;6.33;;;;;;;;;;5039364;28;20215;-76
2021/12/07 13:14:51;;;;;;;15.27;7.53;;;;;;;;;;5042811;28;20229;-75
2021/12/07 13:17:22;;;;;;;19.00;8.03;;;;;;;;;;5038208;28;20246;-76
2021/12/07 13:20:20;;;;;;;14.77;8.20;;;;;;;;;;5042364;28;20237;-76
2021/12/07 13:22:50;;;;;;;13.83;8.20;;;;;;;;;;5040664;28;20210;-76
2021/12/07 13:25:19;;;;;;;14.67;8.50;;;;;;;;;;5040373;28;20222;-76
2021/12/07 13:28:13;;;;;;;15.17;8.53;;;;;;;;;;5040477;28;20864;-77
2021/12/07 13:30:49;;;;;;;19.80;8.77;;;;;;;;;;5039689;28;20214;-76
2021/12/07 13:33:19;;;;;;;17.20;7.77;;;;;;;;;;5041231;28;20371;-76
2021/12/07 13:35:48;;;;;;;18.17;8.50;;;;;;;;;;5039667;28;20231;-76
2021/12/07 13:38:16;;;;;;;13.90;7.93;;;;;;;;;;5040350;28;20239;-76
2021/12/07 13:40:43;;;;;;;17.63;9.40;;;;;;;;;;5039745;28;20583;-76
2021/12/07 13:43:10;;;;;;;19.83;8.50;;;;;;;;;;5040479;28;20218;-76
2021/12/07 13:45:36;;;;;;;12.27;6.00;;;;;;;;;;5040695;28;20649;-75
2021/12/07 13:48:04;;;;;;;15.57;8.13;;;;;;;;;;5040784;28;21312;-77
2021/12/07 13:50:33;;;;;;;16.63;7.97;;;;;;;;;;5040470;28;20305;-76
2021/12/07 13:53:01;;;;;;;16.40;8.27;;;;;;;;;;5040497;28;20214;-76
2021/12/07 13:55:30;;;;;;;11.83;7.73;;;;;;;;;;5040858;28;20242;-76
2021/12/07 13:57:59;;;;;;;15.70;8.27;;;;;;;;;;5039161;28;20222;-76
2021/12/07 14:00:29;;;;;;;13.43;8.53;;;;;;;;;;5041259;28;20661;-77
2021/12/07 14:02:58;;;;;;;16.00;8.30;;;;;;;;;;5038392;28;20267;-76
2021/12/07 14:05:27;;;;;;;14.20;7.90;;;;;;;;;;5040338;28;20252;-76
2021/12/07 14:07:55;;;;;;;15.67;8.17;;;;;;;;;;5039900;28;20293;-76
2021/12/07 14:10:25;;;;;;;17.93;7.27;;;;;;;;;;5039525;28;20646;-75
2021/12/07 14:12:54;;;;;;;16.53;7.47;;;;;;;;;;5040184;28;20207;-76
2021/12/07 14:15:27;;;;;;;15.03;7.53;;;;;;;;;;5039779;28;20312;-75
2021/12/07 14:17:56;;;;;;;16.10;6.93;;;;;;;;;;5040432;28;20268;-77
2021/12/07 14:20:38;;;;;;;14.27;6.57;;;;;;;;;;5036634;28;20601;-76
2021/12/07 14:23:20;;;;;;;18.47;6.50;;;;;;;;;;5041862;28;20261;-78
2021/12/07 14:25:57;;;;;;;18.87;6.50;;;;;;;;;;5038816;28;20237;-76
2021/12/07 14:28:27;;;;;;;12.90;6.43;;;;;;;;;;5041117;28;21099;-77
2021/12/07 14:30:58;;;;;;;11.20;5.83;;;;;;;;;;5039190;28;20562;-77
2021/12/07 14:33:25;;;;;;;9.43;5.27;;;;;;;;;;5040268;28;20211;-76
2021/12/07 14:35:51;;;;;;;10.83;5.30;;;;;;;;;;5039982;28;20575;-77
2021/12/07 14:38:18;;;;;;;11.90;4.93;;;;;;;;;;5038969;28;20235;-76
2021/12/07 14:40:45;;;;;;;9.83;5.60;;;;;;;;;;5040136;28;20234;-76
2021/12/07 14:43:13;;;;;;;10.07;5.47;;;;;;;;;;5038657;28;20207;-76
2021/12/07 14:45:39;;;;;;;8.60;5.27;;;;;;;;;;5041111;28;20210;-77
2021/12/07 14:48:06;;;;;;;12.63;4.90;;;;;;;;;;5039656;28;20280;-77
2021/12/07 14:50:33;;;;;;;12.33;5.07;;;;;;;;;;5039332;28;20210;-76
2021/12/07 14:53:00;;;;;;;11.30;5.07;;;;;;;;;;5040059;28;20268;-76
2021/12/07 14:55:26;;;;;;;9.10;5.33;;;;;;;;;;5038256;28;20932;-76
2021/12/07 14:57:53;;;;;;;13.33;5.70;;;;;;;;;;5041321;28;20241;-77
2021/12/07 15:00:21;;;;;;;11.10;5.47;;;;;;;;;;5038141;28;20264;-77
2021/12/07 15:02:48;;;;;;;14.33;5.73;;;;;;;;;;5036613;28;20222;-78
2021/12/07 15:05:15;;;;;;;10.77;5.67;;;;;;;;;;5039130;28;20207;-77
2021/12/07 15:07:42;;;;;;;12.43;5.00;;;;;;;;;;5038164;28;20238;-77
2021/12/07 15:10:11;;;;;;;15.07;6.13;;;;;;;;;;5030341;28;20229;-77
2021/12/07 15:12:43;;;;;;;11.03;5.93;;;;;;;;;;5038389;28;20214;-77
2021/12/07 15:15:12;;;;;;;8.63;4.00;;;;;;;;;;5037921;28;21185;-77
2021/12/07 15:17:41;;;;;;;13.63;5.10;;;;;;;;;;5038759;28;20787;-77
2021/12/07 15:20:11;;;;;;;11.40;5.17;;;;;;;;;;5036295;28;20669;-76
2021/12/07 15:22:38;;;;;;;12.13;4.57;;;;;;;;;;5040430;28;20245;-77
2021/12/07 15:25:07;;;;;;;7.17;5.13;;;;;;;;;;5037135;28;20237;-76
2021/12/07 15:27:33;;;;;;;12.07;5.40;;;;;;;;;;5037808;28;20207;-77
2021/12/07 15:30:01;;;;;;;13.70;5.43;;;;;;;;;;5039170;28;20221;-77
2021/12/07 15:32:28;;;;;;;12.50;5.47;;;;;;;;;;5035392;28;20237;-77
2021/12/07 15:34:56;;;;;;;8.50;4.50;;;;;;;;;;5039952;28;20317;-77
2021/12/07 15:37:25;;;;;;;11.23;4.80;;;;;;;;;;5036386;28;20202;-76
2021/12/07 15:39:54;;;;;;;7.57;4.77;;;;;;;;;;5032721;28;20919;-76
2021/12/07 15:42:22;;;;;;;9.17;4.53;;;;;;;;;;5041084;28;20206;-76
2021/12/07 15:44:53;;;;;;;13.03;4.97;;;;;;;;;;5038617;28;20211;-76
2021/12/07 15:47:22;;;;;;;11.13;4.87;;;;;;;;;;5030918;28;20230;-77
2021/12/07 15:49:52;;;;;;;11.17;4.37;;;;;;;;;;5038851;28;20253;-77
2021/12/07 15:52:21;;;;;;;12.13;4.70;;;;;;;;;;5038764;28;20563;-78
2021/12/07 15:54:57;;;;;;;9.73;4.53;;;;;;;;;;5040119;28;20227;-77
2021/12/07 15:57:24;;;;;;;9.77;4.60;;;;;;;;;;5037447;28;20271;-77